Time;durP1;ratioP1;P1;durP2;ratioP2;P2;SDS_P1;SDS_P2;PMS_P1;PMS_P2;Temp;Humidity;BMP_temperature;BMP_pressure;BME280_temperature;BME280_humidity;BME280_pressure;Samples;Min_cycle;Max_cycle;Signal;HPM_P1;HPM_P2
2023/03/29 00:00:18;;;;;;;6.53;3.27;;;;;;;4.07;100.00;100977.66;696858;28;816;-59
2023/03/29 00:00:38;;;;;;;6.57;3.28;;;;;;;4.11;100.00;100972.56;696274;28;1452;-59
2023/03/29 00:00:58;;;;;;;5.50;2.92;;;;;;;4.11;100.00;100969.97;697997;28;4271;-59
2023/03/29 00:01:20;;;;;;;6.00;3.10;;;;;;;4.09;100.00;100970.81;697829;28;1153;-59
2023/03/29 00:01:41;;;;;;;5.97;3.17;;;;;;;4.07;100.00;100972.50;694188;28;1531;-59
2023/03/29 00:02:01;;;;;;;6.35;3.20;;;;;;;4.07;100.00;100969.00;695555;28;1078;-59
2023/03/29 00:02:28;;;;;;;6.13;3.00;;;;;;;4.05;100.00;100974.16;694733;28;1263;-59
2023/03/29 00:02:49;;;;;;;5.63;3.00;;;;;;;4.03;100.00;100967.16;695850;28;1062;-59
2023/03/29 00:03:11;;;;;;;5.33;3.10;;;;;;;4.09;100.00;100967.34;694876;28;940;-59
2023/03/29 00:03:32;;;;;;;5.78;3.00;;;;;;;4.12;100.00;100967.44;694678;28;968;-59
2023/03/29 00:03:53;;;;;;;6.07;3.00;;;;;;;4.16;100.00;100963.22;694470;28;4353;-59
2023/03/29 00:04:14;;;;;;;6.07;3.17;;;;;;;4.20;100.00;100963.34;691364;28;881;-59
2023/03/29 00:04:35;;;;;;;5.25;2.95;;;;;;;4.20;100.00;100952.97;692933;28;1556;-59
2023/03/29 00:04:57;;;;;;;5.87;3.20;;;;;;;4.18;100.00;100964.13;693456;28;715;-59
2023/03/29 00:05:24;;;;;;;6.10;3.20;;;;;;;4.15;100.00;100964.06;694922;28;829;-59
2023/03/29 00:05:44;;;;;;;5.90;3.00;;;;;;;4.12;100.00;100961.38;693691;28;1599;-59
2023/03/29 00:06:05;;;;;;;6.30;3.10;;;;;;;4.09;100.00;100959.59;694850;28;924;-58
2023/03/29 00:06:30;;;;;;;6.20;3.33;;;;;;;4.13;100.00;100965.72;696319;28;1559;-59
2023/03/29 00:06:50;;;;;;;6.47;2.85;;;;;;;4.21;100.00;100959.03;695767;28;4624;-59
2023/03/29 00:07:12;;;;;;;5.13;2.83;;;;;;;4.24;100.00;100969.47;695980;28;1339;-58
2023/03/29 00:07:34;;;;;;;5.03;2.80;;;;;;;4.22;100.00;100956.50;695455;28;1489;-59
2023/03/29 00:08:00;;;;;;;5.13;2.88;;;;;;;4.17;100.00;100965.84;691782;28;1139;-59
2023/03/29 00:08:20;;;;;;;5.78;3.10;;;;;;;4.21;100.00;100967.69;689093;28;821;-58
2023/03/29 00:08:41;;;;;;;5.90;2.88;;;;;;;4.20;100.00;100963.34;688630;28;1910;-59
2023/03/29 00:09:04;;;;;;;5.67;3.10;;;;;;;4.17;100.00;100970.16;688705;28;1537;-59
2023/03/29 00:09:25;;;;;;;4.78;2.83;;;;;;;4.11;100.00;100969.97;686930;28;1895;-58
2023/03/29 00:09:45;;;;;;;5.43;2.92;;;;;;;4.09;100.00;100965.63;687960;28;4299;-58
2023/03/29 00:10:08;;;;;;;5.72;3.10;;;;;;;4.09;100.00;100960.44;690541;28;823;-58
2023/03/29 00:10:31;;;;;;;6.53;3.20;;;;;;;4.11;100.00;100962.22;692595;28;1553;-59
2023/03/29 00:10:52;;;;;;;7.00;2.97;;;;;;;4.09;100.00;100960.44;693112;28;1011;-59
2023/03/29 00:11:13;;;;;;;6.60;3.13;;;;;;;4.09;100.00;100965.63;695206;28;1017;-59
2023/03/29 00:11:33;;;;;;;6.30;3.10;;;;;;;4.13;100.00;100961.44;697122;28;1553;-59
2023/03/29 00:11:54;;;;;;;5.50;3.07;;;;;;;4.12;100.00;100954.50;698175;28;1298;-59
2023/03/29 00:12:14;;;;;;;6.10;3.10;;;;;;;4.08;100.00;100958.72;696195;28;928;-58
2023/03/29 00:12:37;;;;;;;5.97;3.00;;;;;;;4.05;100.00;100968.09;692255;28;1566;-58
2023/03/29 00:12:57;;;;;;;5.15;2.85;;;;;;;4.02;100.00;100958.53;691600;28;4252;-59
2023/03/29 00:13:18;;;;;;;6.28;3.10;;;;;;;4.01;100.00;100958.50;693062;28;901;-59
2023/03/29 00:13:38;;;;;;;6.27;3.10;;;;;;;3.99;100.00;100963.66;692423;28;1467;-59
2023/03/29 00:13:59;;;;;;;6.25;2.90;;;;;;;4.04;100.00;100961.16;693887;28;1158;-59
2023/03/29 00:14:19;;;;;;;6.20;2.90;;;;;;;4.06;100.00;100959.50;693387;28;817;-59
2023/03/29 00:14:40;;;;;;;6.65;2.90;;;;;;;4.10;100.00;100953.59;694904;28;1630;-59
2023/03/29 00:15:00;;;;;;;5.27;2.60;;;;;;;4.14;100.00;100957.13;695960;28;1029;-59
2023/03/29 00:15:21;;;;;;;5.60;3.25;;;;;;;4.21;100.00;100953.84;696101;28;1302;-60
2023/03/29 00:15:41;;;;;;;5.07;2.97;;;;;;;4.28;100.00;100950.59;694350;28;4517;-59
2023/03/29 00:16:02;;;;;;;5.07;3.05;;;;;;;4.24;100.00;100954.81;693174;28;887;-59
2023/03/29 00:16:22;;;;;;;6.07;3.10;;;;;;;4.21;100.00;100953.84;694385;28;3532;-58
2023/03/29 00:16:43;;;;;;;5.95;2.90;;;;;;;4.15;100.00;100957.16;694880;28;1437;-58
2023/03/29 00:17:04;;;;;;;5.22;2.92;;;;;;;4.13;100.00;100956.25;695100;28;832;-59
2023/03/29 00:17:24;;;;;;;6.85;3.10;;;;;;;4.16;100.00;100956.31;694612;28;1495;-59
2023/03/29 00:17:45;;;;;;;6.43;3.07;;;;;;;4.16;100.00;100945.09;695376;28;789;-59
2023/03/29 00:18:05;;;;;;;5.90;2.92;;;;;;;4.21;100.00;100949.56;695432;28;953;-59
2023/03/29 00:18:25;;;;;;;5.20;3.03;;;;;;;4.25;100.00;100951.41;695576;28;1554;-59
2023/03/29 00:18:46;;;;;;;5.53;3.07;;;;;;;4.22;100.00;100950.44;694238;28;4613;-58
2023/03/29 00:19:06;;;;;;;6.30;3.07;;;;;;;4.20;100.00;100954.69;694501;28;952;-59
2023/03/29 00:19:27;;;;;;;6.40;3.10;;;;;;;4.30;100.00;100954.09;694391;28;1546;-59
2023/03/29 00:19:48;;;;;;;6.32;3.17;;;;;;;4.30;100.00;100953.22;694271;28;904;-59
2023/03/29 00:20:09;;;;;;;5.60;2.93;;;;;;;4.30;100.00;100956.69;695461;28;1007;-58
2023/03/29 00:20:30;;;;;;;5.10;2.92;;;;;;;4.30;100.00;100953.22;694801;28;1539;-59
2023/03/29 00:20:58;;;;;;;5.78;2.92;;;;;;;4.28;100.00;100954.88;694513;28;797;-59
2023/03/29 00:21:18;;;;;;;5.72;2.90;;;;;;;4.27;100.00;100951.44;694735;28;1257;-58
2023/03/29 00:21:38;;;;;;;5.70;2.90;;;;;;;4.26;100.00;100954.84;693703;28;1510;-59
2023/03/29 00:21:59;;;;;;;6.03;3.00;;;;;;;4.23;100.00;100958.22;690871;28;4464;-59
2023/03/29 00:22:20;;;;;;;7.88;3.08;;;;;;;4.23;100.00;100957.34;691018;28;935;-59
2023/03/29 00:22:41;;;;;;;7.55;2.92;;;;;;;4.20;100.00;100957.28;690930;28;1849;-60
2023/03/29 00:23:02;;;;;;;6.82;2.78;;;;;;;4.31;100.00;100948.09;691503;28;940;-59
2023/03/29 00:23:23;;;;;;;6.35;2.92;;;;;;;4.29;100.00;100949.75;692193;28;1407;-59
2023/03/29 00:23:44;;;;;;;7.30;3.10;;;;;;;4.23;100.00;100950.47;692064;28;1262;-57
2023/03/29 00:24:05;;;;;;;6.37;2.90;;;;;;;4.24;100.00;100941.00;693001;28;1451;-59
2023/03/29 00:24:25;;;;;;;5.88;3.00;;;;;;;4.23;100.00;100952.19;692438;28;1592;-59
2023/03/29 00:24:47;;;;;;;5.47;3.07;;;;;;;4.20;100.00;100950.38;692179;28;4278;-59
2023/03/29 00:25:10;;;;;;;5.15;3.00;;;;;;;4.20;100.00;100950.38;693178;28;1305;-61
2023/03/29 00:25:30;;;;;;;5.70;3.20;;;;;;;4.21;100.00;100951.25;691956;28;1504;-61
2023/03/29 00:25:54;;;;;;;5.97;3.00;;;;;;;4.22;100.00;100950.44;690825;28;790;-61
2023/03/29 00:26:15;;;;;;;5.65;2.90;;;;;;;4.22;100.00;100950.44;691521;28;797;-61
2023/03/29 00:26:35;;;;;;;6.10;3.10;;;;;;;4.20;100.00;100952.97;690555;28;1319;-61
2023/03/29 00:26:55;;;;;;;6.50;3.20;;;;;;;4.17;100.00;100958.09;687557;28;1641;-61
2023/03/29 00:27:16;;;;;;;5.97;3.33;;;;;;;4.14;100.00;100957.13;684876;28;1232;-61
2023/03/29 00:27:37;;;;;;;5.82;2.90;;;;;;;4.19;100.00;100947.75;682761;28;1543;-62
2023/03/29 00:27:57;;;;;;;5.45;2.80;;;;;;;4.21;100.00;100948.66;684921;28;4537;-59
2023/03/29 00:28:18;;;;;;;5.20;2.87;;;;;;;4.15;100.00;100953.69;685804;28;1105;-57
2023/03/29 00:28:39;;;;;;;5.83;3.10;;;;;;;4.24;100.00;100954.81;686600;28;2183;-59
2023/03/29 00:28:59;;;;;;;7.47;3.03;;;;;;;4.28;100.00;100954.88;689538;28;1422;-59
2023/03/29 00:29:20;;;;;;;6.77;2.63;;;;;;;4.25;100.00;100950.50;689035;28;1286;-59
2023/03/29 00:29:41;;;;;;;5.50;2.70;;;;;;;4.22;100.00;100950.44;688673;28;1540;-59
2023/03/29 00:30:03;;;;;;;6.68;2.90;;;;;;;4.21;100.00;100948.66;687165;28;1165;-58
2023/03/29 00:30:25;;;;;;;6.57;2.88;;;;;;;4.21;100.00;100954.75;686489;28;1473;-58
2023/03/29 00:30:49;;;;;;;5.75;2.88;;;;;;;4.29;100.00;100947.16;687146;28;4396;-59
2023/03/29 00:31:12;;;;;;;5.40;3.00;;;;;;;4.36;100.00;100943.00;691952;28;1154;-59
2023/03/29 00:31:32;;;;;;;6.13;2.90;;;;;;;4.32;100.00;100949.84;693715;28;1491;-59
2023/03/29 00:31:54;;;;;;;6.57;2.80;;;;;;;4.23;100.00;100942.69;694239;28;1082;-58
2023/03/29 00:32:15;;;;;;;7.05;2.92;;;;;;;4.22;100.00;100945.25;692725;28;1338;-59
2023/03/29 00:32:35;;;;;;;5.18;2.88;;;;;;;4.24;100.00;100943.59;691939;28;1504;-57
2023/03/29 00:32:56;;;;;;;5.50;2.77;;;;;;;4.24;100.00;100938.41;689769;28;1335;-58
2023/03/29 00:33:19;;;;;;;5.93;2.78;;;;;;;4.25;100.00;100940.16;689078;28;1669;-59
2023/03/29 00:33:42;;;;;;;5.63;3.00;;;;;;;4.29;100.00;100946.28;690298;28;4378;-59
2023/03/29 00:34:03;;;;;;;5.78;2.90;;;;;;;4.28;100.00;100940.25;692224;28;837;-59
2023/03/29 00:34:29;;;;;;;5.10;2.90;;;;;;;4.36;100.00;100940.44;694821;28;1263;-59
2023/03/29 00:34:49;;;;;;;4.88;2.67;;;;;;;4.28;100.00;100940.25;694074;28;929;-59
2023/03/29 00:35:10;;;;;;;5.18;2.78;;;;;;;4.28;100.00;100940.25;692397;28;1176;-58
2023/03/29 00:35:30;;;;;;;5.20;2.87;;;;;;;4.23;100.00;100939.25;692599;28;1534;-58
2023/03/29 00:35:52;;;;;;;5.47;2.90;;;;;;;4.21;100.00;100938.31;689394;28;1591;-58
2023/03/29 00:36:13;;;;;;;4.80;2.70;;;;;;;4.20;100.00;100936.59;690360;28;2035;-59
2023/03/29 00:36:34;;;;;;;5.10;2.75;;;;;;;4.17;100.00;100939.09;689928;28;1109;-59
2023/03/29 00:36:56;;;;;;;6.10;2.80;;;;;;;4.17;100.00;100933.94;689472;28;4349;-59
2023/03/29 00:37:21;;;;;;;5.13;2.80;;;;;;;4.28;100.00;100937.66;688272;28;984;-59
2023/03/29 00:37:41;;;;;;;5.25;2.80;;;;;;;4.34;100.00;100940.38;690793;28;1813;-59
2023/03/29 00:38:04;;;;;;;5.30;3.13;;;;;;;4.34;100.00;100932.63;692863;28;739;-58
2023/03/29 00:38:25;;;;;;;6.55;3.10;;;;;;;4.36;100.00;100938.72;689755;28;1484;-59
2023/03/29 00:38:45;;;;;;;6.40;3.00;;;;;;;4.35;100.00;100936.97;690119;28;5196;-59
2023/03/29 00:39:06;;;;;;;4.75;2.65;;;;;;;4.34;100.00;100930.03;691559;28;888;-59
2023/03/29 00:39:27;;;;;;;4.60;2.60;;;;;;;4.38;100.00;100928.41;692335;28;1816;-59
2023/03/29 00:39:49;;;;;;;5.18;2.95;;;;;;;4.36;100.00;100938.72;689802;28;4359;-59
2023/03/29 00:40:14;;;;;;;5.45;3.00;;;;;;;4.35;100.00;100936.97;688297;28;912;-59
2023/03/29 00:40:43;;;;;;;5.50;2.80;;;;;;;4.33;100.00;100937.75;685686;28;1471;-58
2023/03/29 00:41:07;;;;;;;5.82;2.85;;;;;;;4.32;100.00;100938.59;686933;28;1236;-59
2023/03/29 00:41:28;;;;;;;5.50;2.60;;;;;;;4.34;100.00;100931.75;688190;28;1491;-58
2023/03/29 00:41:49;;;;;;;6.60;2.67;;;;;;;4.32;100.00;100931.72;688117;28;853;-58
2023/03/29 00:42:15;;;;;;;7.00;2.90;;;;;;;4.38;100.00;100929.28;687547;28;1032;-59
2023/03/29 00:42:36;;;;;;;6.03;2.90;;;;;;;4.37;100.00;100930.09;690556;28;2085;-59
2023/03/29 00:42:57;;;;;;;6.57;3.10;;;;;;;4.39;100.00;100931.03;691451;28;4530;-59
2023/03/29 00:43:17;;;;;;;5.80;2.90;;;;;;;4.46;100.00;100934.66;692430;28;778;-58
2023/03/29 00:43:55;;;;;;;6.73;2.80;;;;;;;4.43;100.00;100930.28;690902;28;1477;-59
2023/03/29 00:44:52;;;;;;;4.78;2.70;;;;;;;4.35;100.00;100921.44;691497;28;1294;-59
2023/03/29 00:45:21;;;;;;;5.00;2.72;;;;;;;4.41;100.00;100921.56;692800;28;1394;-59
2023/03/29 00:45:41;;;;;;;5.95;2.80;;;;;;;4.48;100.00;100921.75;694120;28;4397;-59
2023/03/29 00:46:02;;;;;;;5.10;2.88;;;;;;;4.45;100.00;100924.25;696589;28;1451;-59
2023/03/29 00:46:23;;;;;;;4.97;2.87;;;;;;;4.38;100.00;100926.69;694918;28;1349;-59
2023/03/29 00:46:44;;;;;;;5.20;3.00;;;;;;;4.38;100.00;100925.81;695383;28;1559;-59
2023/03/29 00:47:04;;;;;;;5.00;2.70;;;;;;;4.34;100.00;100926.59;694644;28;904;-58
2023/03/29 00:47:41;;;;;;;4.80;2.83;;;;;;;4.31;100.00;100922.19;690323;28;1279;-58
2023/03/29 00:48:05;;;;;;;5.97;2.90;;;;;;;4.35;100.00;100926.63;690148;28;1298;-58
2023/03/29 00:48:28;;;;;;;5.55;2.80;;;;;;;4.35;100.00;100931.78;692717;28;822;-59
2023/03/29 00:48:52;;;;;;;5.57;2.90;;;;;;;4.34;100.00;100921.41;692047;28;4949;-58
2023/03/29 00:49:14;;;;;;;5.30;2.88;;;;;;;4.32;100.00;100923.97;695263;28;1320;-59
2023/03/29 00:49:34;;;;;;;5.43;2.70;;;;;;;4.33;100.00;100923.09;694596;28;1299;-59
2023/03/29 00:50:01;;;;;;;6.73;2.80;;;;;;;4.35;100.00;100918.84;696049;28;828;-59
2023/03/29 00:50:31;;;;;;;6.43;2.80;;;;;;;4.40;100.00;100922.44;695403;28;1038;-58
2023/03/29 00:51:07;;;;;;;5.97;2.53;;;;;;;4.36;100.00;100923.19;694752;28;1332;-59
2023/03/29 00:51:30;;;;;;;5.25;2.65;;;;;;;4.50;100.00;100910.59;694419;28;1480;-59
2023/03/29 00:51:51;;;;;;;4.95;2.45;;;;;;;4.43;100.00;100913.84;692507;28;4386;-58
2023/03/29 00:52:14;;;;;;;4.82;2.50;;;;;;;4.46;100.00;100907.88;693775;28;901;-58
2023/03/29 00:52:36;;;;;;;5.43;2.83;;;;;;;4.43;100.00;100919.91;691536;28;1541;-58
2023/03/29 00:53:08;;;;;;;5.47;2.83;;;;;;;4.45;100.00;100916.50;692695;28;1192;-59
2023/03/29 00:53:36;;;;;;;4.93;2.60;;;;;;;4.36;100.00;100912.84;691351;28;1670;-59
2023/03/29 00:54:01;;;;;;;5.63;2.83;;;;;;;4.32;100.00;100910.13;693225;28;984;-58
2023/03/29 00:54:21;;;;;;;5.35;3.08;;;;;;;4.28;100.00;100916.06;691248;28;1318;-58
2023/03/29 00:54:43;;;;;;;5.70;2.90;;;;;;;4.24;100.00;100917.72;690753;28;4303;-58
2023/03/29 00:55:11;;;;;;;5.35;2.90;;;;;;;4.26;100.00;100913.44;691308;28;921;-58
2023/03/29 00:55:36;;;;;;;5.78;2.85;;;;;;;4.21;100.00;100913.34;693667;28;1530;-58
2023/03/29 00:56:12;;;;;;;6.13;2.88;;;;;;;4.30;100.00;100920.44;693518;28;1279;-59
2023/03/29 00:56:37;;;;;;;5.82;2.55;;;;;;;4.34;100.00;100926.59;694560;28;1527;-59
2023/03/29 00:57:02;;;;;;;4.72;2.70;;;;;;;4.30;100.00;100920.44;695612;28;873;-59
2023/03/29 00:57:25;;;;;;;5.93;2.90;;;;;;;4.38;100.00;100921.50;691718;28;1312;-58
2023/03/29 00:57:48;;;;;;;5.95;2.78;;;;;;;4.35;100.00;100915.41;692127;28;4584;-58
2023/03/29 00:58:13;;;;;;;6.32;2.80;;;;;;;4.32;100.00;100923.06;693336;28;1515;-58
2023/03/29 00:59:12;;;;;;;6.28;2.80;;;;;;;4.38;100.00;100921.50;691815;28;1576;-58
2023/03/29 00:59:34;;;;;;;5.65;2.70;;;;;;;4.42;100.00;100915.56;685179;28;1616;-58
2023/03/29 00:59:56;;;;;;;4.75;2.83;;;;;;;4.46;100.00;100915.63;681560;28;1127;-59
2023/03/29 01:00:19;;;;;;;5.65;2.78;;;;;;;4.48;100.00;100916.56;679679;29;1246;-59
2023/03/29 01:01:00;;;;;;;5.43;2.70;;;;;;;4.49;100.00;100913.16;680780;28;4595;-59
2023/03/29 01:01:37;;;;;;;4.43;2.60;;;;;;;4.39;100.00;100915.50;681276;28;1033;-59
2023/03/29 01:02:04;;;;;;;5.22;2.60;;;;;;;4.41;100.00;100918.13;680974;29;1633;-58
2023/03/29 01:02:28;;;;;;;5.93;2.80;;;;;;;4.35;100.00;100908.50;693852;28;1322;-58
2023/03/29 01:02:58;;;;;;;6.05;2.80;;;;;;;4.33;100.00;100915.34;694704;28;991;-59
2023/03/29 01:03:27;;;;;;;5.38;2.88;;;;;;;4.33;100.00;100912.75;692668;28;1415;-58
2023/03/29 01:03:53;;;;;;;4.93;2.78;;;;;;;4.34;100.00;100909.31;692555;28;4325;-59
2023/03/29 01:04:21;;;;;;;5.32;2.50;;;;;;;4.34;100.00;100914.50;695740;28;793;-59
2023/03/29 01:04:46;;;;;;;5.97;2.63;;;;;;;4.30;100.00;100910.09;689297;28;1500;-59
2023/03/29 01:05:16;;;;;;;5.30;2.83;;;;;;;4.32;100.00;100910.13;687760;28;1299;-58
2023/03/29 01:05:44;;;;;;;5.22;2.83;;;;;;;4.33;100.00;100911.88;686379;28;1477;-59
2023/03/29 01:06:08;;;;;;;5.25;2.80;;;;;;;4.39;100.00;100912.91;687228;28;789;-59
2023/03/29 01:06:32;;;;;;;4.88;2.60;;;;;;;4.47;100.00;100910.50;689540;28;1504;-59
2023/03/29 01:06:59;;;;;;;5.45;2.92;;;;;;;4.44;100.00;100910.44;691598;28;4556;-58
2023/03/29 01:07:48;;;;;;;4.90;2.80;;;;;;;4.46;100.00;100907.88;693850;28;1393;-59
2023/03/29 01:08:17;;;;;;;5.43;2.80;;;;;;;4.39;100.00;100910.31;694482;28;937;-58
2023/03/29 01:09:01;;;;;;;5.07;2.70;;;;;;;4.29;100.00;100910.91;695109;28;1934;-58
2023/03/29 01:09:26;;;;;;;7.20;2.70;;;;;;;4.29;100.00;100908.31;695369;28;1334;-58
2023/03/29 01:09:52;;;;;;;6.22;2.90;;;;;;;4.26;100.00;100909.16;691676;28;4349;-59
2023/03/29 01:10:26;;;;;;;5.68;2.65;;;;;;;4.23;100.00;100906.47;690204;28;1315;-58
2023/03/29 01:10:54;;;;;;;5.30;2.90;;;;;;;4.34;100.00;100904.16;689847;28;1212;-59
2023/03/29 01:11:21;;;;;;;4.70;2.70;;;;;;;4.32;100.00;100903.25;689751;28;1136;-58
2023/03/29 01:11:50;;;;;;;5.32;2.88;;;;;;;4.30;100.00;100907.50;686096;28;1458;-59
2023/03/29 01:12:17;;;;;;;5.70;2.88;;;;;;;4.32;100.00;100902.34;689782;28;1432;-58
2023/03/29 01:12:50;;;;;;;4.80;2.83;;;;;;;4.35;100.00;100908.50;689604;28;3651;-58
2023/03/29 01:13:17;;;;;;;4.85;2.83;;;;;;;4.31;100.00;100903.22;688347;28;6426;-59
2023/03/29 01:13:43;;;;;;;5.85;2.70;;;;;;;4.26;100.00;100903.09;693101;28;1504;-59
2023/03/29 01:14:09;;;;;;;5.50;2.83;;;;;;;4.25;100.00;100906.50;693009;28;1530;-59
2023/03/29 01:14:29;;;;;;;6.03;2.72;;;;;;;4.23;100.00;100901.28;689426;28;1536;-59
2023/03/29 01:14:57;;;;;;;5.68;2.53;;;;;;;4.24;100.00;100903.06;687513;28;1541;-59
2023/03/29 01:15:26;;;;;;;5.93;2.65;;;;;;;4.30;100.00;100907.50;689192;28;1449;-59
2023/03/29 01:15:47;;;;;;;4.32;2.60;;;;;;;4.28;100.00;100898.84;687284;28;4889;-58
2023/03/29 01:16:11;;;;;;;5.15;2.97;;;;;;;4.29;100.00;100904.88;689531;28;1223;-58
2023/03/29 01:16:33;;;;;;;4.85;2.80;;;;;;;4.35;100.00;100905.91;686961;28;1572;-59
2023/03/29 01:16:56;;;;;;;6.10;2.75;;;;;;;4.35;100.00;100902.47;687236;28;1217;-59
2023/03/29 01:17:20;;;;;;;5.97;2.90;;;;;;;4.35;100.00;100903.31;686898;28;1421;-59
2023/03/29 01:17:48;;;;;;;5.50;2.85;;;;;;;4.36;100.00;100899.91;684045;28;1462;-59
2023/03/29 01:18:09;;;;;;;5.78;3.10;;;;;;;4.32;100.00;100903.25;682216;29;1409;-59
2023/03/29 01:18:30;;;;;;;6.38;2.90;;;;;;;4.38;100.00;100900.78;683530;28;1715;-59
2023/03/29 01:18:51;;;;;;;5.80;2.80;;;;;;;4.48;100.00;100899.31;686433;28;4618;-59
2023/03/29 01:19:17;;;;;;;5.18;2.60;;;;;;;4.47;100.00;100902.72;690344;28;1193;-59
2023/03/29 01:19:44;;;;;;;5.57;2.90;;;;;;;4.48;100.00;100901.03;691674;28;1559;-58
2023/03/29 01:20:23;;;;;;;5.05;3.00;;;;;;;4.42;100.00;100897.44;689172;28;1311;-58
2023/03/29 01:21:01;;;;;;;5.60;2.90;;;;;;;4.44;100.00;100905.25;692061;28;1554;-59
2023/03/29 01:21:46;;;;;;;4.30;2.63;;;;;;;4.45;100.00;100901.84;692741;28;1308;-58
2023/03/29 01:22:24;;;;;;;6.20;2.70;;;;;;;4.38;100.00;100898.22;686344;28;4861;-59
2023/03/29 01:22:50;;;;;;;6.53;2.95;;;;;;;4.33;100.00;100902.38;691896;28;1560;-58
2023/03/29 01:23:37;;;;;;;6.18;2.88;;;;;;;4.31;100.00;100901.50;694265;28;1286;-58
2023/03/29 01:24:25;;;;;;;4.72;3.08;;;;;;;4.34;100.00;100900.69;695209;28;1344;-58
2023/03/29 01:25:13;;;;;;;5.22;2.88;;;;;;;4.44;100.00;100900.06;695698;28;4283;-59
2023/03/29 01:25:45;;;;;;;5.60;2.72;;;;;;;4.50;100.00;100901.94;696464;28;1847;-59
2023/03/29 01:26:37;;;;;;;5.22;2.50;;;;;;;4.51;100.00;100896.78;696614;28;1022;-59
2023/03/29 01:27:21;;;;;;;4.90;2.65;;;;;;;4.35;100.00;100885.19;678790;28;1411;-59
2023/03/29 01:27:56;;;;;;;5.63;3.03;;;;;;;4.34;100.00;100893.78;691169;28;4564;-59
2023/03/29 01:28:25;;;;;;;6.38;3.30;;;;;;;4.35;100.00;100890.38;691243;28;1404;-59
2023/03/29 01:28:51;;;;;;;4.90;2.88;;;;;;;4.36;100.00;100892.13;692853;28;1918;-59
2023/03/29 01:29:34;;;;;;;6.05;2.78;;;;;;;4.35;100.00;100895.56;691116;28;1690;-59
2023/03/29 01:30:00;;;;;;;5.07;2.80;;;;;;;4.33;100.00;100886.00;693281;28;909;-59
2023/03/29 01:30:47;;;;;;;6.05;3.00;;;;;;;4.35;100.00;100887.78;693814;28;1036;-59
2023/03/29 01:31:15;;;;;;;5.80;3.08;;;;;;;4.31;100.00;100883.38;689470;28;6358;-59
2023/03/29 01:31:41;;;;;;;5.45;2.95;;;;;;;4.36;100.00;100879.19;690803;28;1183;-59
2023/03/29 01:32:08;;;;;;;4.85;2.95;;;;;;;4.36;100.00;100886.06;691651;28;1035;-59
2023/03/29 01:32:40;;;;;;;4.80;2.80;;;;;;;4.34;100.00;100888.63;690915;28;1468;-59
2023/03/29 01:33:22;;;;;;;4.35;2.80;;;;;;;4.33;100.00;100888.59;691213;28;2110;-58
2023/03/29 01:33:47;;;;;;;6.15;3.10;;;;;;;4.33;100.00;100892.03;695935;28;4581;-59
2023/03/29 01:34:21;;;;;;;5.10;2.70;;;;;;;4.35;100.00;100885.19;696733;28;1260;-59
2023/03/29 01:34:59;;;;;;;5.85;2.83;;;;;;;4.32;100.00;100886.81;696247;28;1449;-58
2023/03/29 01:35:31;;;;;;;6.88;3.10;;;;;;;4.38;100.00;100890.44;697363;28;1042;-59
2023/03/29 01:36:00;;;;;;;5.60;3.08;;;;;;;4.39;100.00;100887.03;698279;28;955;-59
2023/03/29 01:36:35;;;;;;;5.25;2.90;;;;;;;4.39;100.00;100901.69;696407;28;940;-59
2023/03/29 01:37:11;;;;;;;5.32;2.78;;;;;;;4.55;100.00;100882.22;695122;28;4457;-58
2023/03/29 01:37:44;;;;;;;5.90;3.05;;;;;;;4.47;100.00;100884.59;694874;28;1626;-58
2023/03/29 01:38:23;;;;;;;5.82;3.13;;;;;;;4.55;100.00;100884.78;695481;28;1435;-58
2023/03/29 01:38:51;;;;;;;6.07;2.90;;;;;;;4.52;100.00;100889.91;694883;28;5136;-59
2023/03/29 01:39:11;;;;;;;5.40;2.90;;;;;;;4.51;100.00;100890.75;692252;28;1248;-59
2023/03/29 01:39:33;;;;;;;5.47;2.93;;;;;;;4.54;100.00;100886.53;692255;28;1452;-59
2023/03/29 01:39:54;;;;;;;5.60;2.78;;;;;;;4.50;100.00;100888.97;690239;28;4508;-58
2023/03/29 01:40:14;;;;;;;6.65;3.00;;;;;;;4.43;100.00;100882.78;691647;28;881;-59
2023/03/29 01:40:35;;;;;;;5.72;2.88;;;;;;;4.48;100.00;100882.91;688693;28;1413;-58
2023/03/29 01:40:55;;;;;;;6.20;3.10;;;;;;;4.42;100.00;100881.91;690024;28;1187;-58
2023/03/29 01:41:16;;;;;;;5.60;2.93;;;;;;;4.39;100.00;100871.50;688722;28;889;-58
2023/03/29 01:41:42;;;;;;;5.30;3.10;;;;;;;4.33;100.00;100880.81;689752;28;1543;-59
2023/03/29 01:42:15;;;;;;;5.32;3.10;;;;;;;4.31;100.00;100883.38;691481;28;917;-58
2023/03/29 01:42:49;;;;;;;5.16;2.98;;;;;;;4.27;100.00;100876.38;688652;28;1595;-59
2023/03/29 01:43:22;;;;;;;6.03;3.05;;;;;;;4.34;100.00;100875.69;688696;28;5213;-58
2023/03/29 01:44:04;;;;;;;4.53;2.95;;;;;;;4.34;100.00;100878.25;692131;28;1565;-59
2023/03/29 01:44:44;;;;;;;6.00;3.10;;;;;;;4.34;100.00;100880.84;692434;28;2304;-58
2023/03/29 01:45:08;;;;;;;6.65;3.42;;;;;;;4.41;100.00;100874.97;691091;28;1188;-59
2023/03/29 01:45:31;;;;;;;5.22;3.00;;;;;;;4.38;100.00;100869.75;691103;28;1339;-59
2023/03/29 01:46:07;;;;;;;5.10;2.60;;;;;;;4.36;100.00;100871.44;690175;28;4483;-59
2023/03/29 01:46:33;;;;;;;5.38;3.08;;;;;;;4.39;100.00;100875.81;696270;28;873;-58
2023/03/29 01:47:06;;;;;;;5.10;2.90;;;;;;;4.39;100.00;100866.31;696398;28;873;-58
2023/03/29 01:47:44;;;;;;;5.13;2.80;;;;;;;4.46;100.00;100863.84;692173;28;988;-59
2023/03/29 01:48:15;;;;;;;5.90;2.80;;;;;;;4.49;100.00;100863.97;692042;28;1017;-59
2023/03/29 01:48:48;;;;;;;5.70;3.00;;;;;;;4.42;100.00;100863.78;686903;28;1598;-59
2023/03/29 01:49:24;;;;;;;6.57;3.00;;;;;;;4.42;100.00;100861.22;689586;28;5131;-59
2023/03/29 01:50:12;;;;;;;6.03;3.33;;;;;;;4.47;100.00;100868.22;691407;28;1429;-59
2023/03/29 01:50:38;;;;;;;5.50;3.20;;;;;;;4.42;100.00;100860.34;696287;28;1456;-59
2023/03/29 01:51:10;;;;;;;6.70;3.20;;;;;;;4.44;100.00;100858.66;695359;28;1195;-59
2023/03/29 01:51:44;;;;;;;6.13;3.10;;;;;;;4.43;100.00;100860.38;694568;28;1642;-58
2023/03/29 01:52:17;;;;;;;4.95;2.90;;;;;;;4.54;100.00;100859.75;694321;28;6232;-59
2023/03/29 01:52:51;;;;;;;6.50;3.35;;;;;;;4.53;100.00;100861.47;691600;28;1568;-59
2023/03/29 01:53:23;;;;;;;6.32;2.97;;;;;;;4.46;100.00;100854.41;694280;28;806;-59
2023/03/29 01:54:06;;;;;;;8.30;3.10;;;;;;;4.45;100.00;100859.53;693857;28;1500;-58
2023/03/29 01:54:35;;;;;;;6.65;2.97;;;;;;;4.38;100.00;100864.56;695468;28;1058;-59
2023/03/29 01:55:01;;;;;;;5.90;2.90;;;;;;;4.42;100.00;100861.22;697221;28;4502;-58
2023/03/29 01:55:27;;;;;;;5.43;3.10;;;;;;;4.40;100.00;100862.00;693764;28;1532;-58
2023/03/29 01:55:53;;;;;;;5.25;3.10;;;;;;;4.47;100.00;100863.03;693910;28;1700;-58
2023/03/29 01:56:20;;;;;;;5.70;2.95;;;;;;;4.46;100.00;100858.69;689956;28;1131;-59
2023/03/29 01:56:47;;;;;;;6.03;3.17;;;;;;;4.45;100.00;100857.81;685791;28;1562;-58
2023/03/29 01:57:09;;;;;;;5.82;3.33;;;;;;;4.46;100.00;100858.69;687661;28;952;-59
2023/03/29 01:57:32;;;;;;;6.47;3.10;;;;;;;4.42;100.00;100853.44;690107;28;1405;-58
2023/03/29 01:57:55;;;;;;;5.88;3.20;;;;;;;4.43;100.00;100852.59;685960;28;4392;-58
2023/03/29 01:58:17;;;;;;;6.22;3.17;;;;;;;4.43;100.00;100850.03;688416;28;1261;-58
2023/03/29 01:58:43;;;;;;;6.13;3.20;;;;;;;4.38;100.00;100853.34;687977;28;1424;-58
2023/03/29 01:59:10;;;;;;;5.43;3.15;;;;;;;4.39;100.00;100855.09;689608;28;1048;-59
2023/03/29 01:59:34;;;;;;;6.75;3.13;;;;;;;4.42;100.00;100856.03;686301;28;1629;-58
2023/03/29 01:59:58;;;;;;;6.22;3.10;;;;;;;4.37;100.00;100849.00;688902;28;1335;-58
2023/03/29 02:00:23;;;;;;;5.93;3.20;;;;;;;4.33;100.00;100853.22;691760;28;944;-58
2023/03/29 02:00:45;;;;;;;5.20;3.10;;;;;;;4.33;100.00;100848.03;692545;28;4297;-59
2023/03/29 02:01:09;;;;;;;6.07;3.28;;;;;;;4.33;100.00;100842.88;691037;28;1183;-59
2023/03/29 02:01:37;;;;;;;6.00;3.25;;;;;;;4.36;100.00;100845.53;693857;28;1753;-58
2023/03/29 02:02:00;;;;;;;6.45;3.05;;;;;;;4.36;100.00;100845.53;689574;28;1719;-58
2023/03/29 02:02:26;;;;;;;5.90;3.20;;;;;;;4.35;100.00;100853.28;689183;28;984;-58
2023/03/29 02:02:52;;;;;;;6.35;3.42;;;;;;;4.33;100.00;100855.81;686318;28;1615;-59
2023/03/29 02:03:16;;;;;;;6.30;3.35;;;;;;;4.34;100.00;100860.16;683975;28;1168;-58
2023/03/29 02:03:41;;;;;;;5.60;2.90;;;;;;;4.34;100.00;100856.69;683845;28;1456;-58
2023/03/29 02:04:08;;;;;;;5.93;3.15;;;;;;;4.32;100.00;100848.91;689127;28;4987;-58